Time;durP1;ratioP1;P1;durP2;ratioP2;P2;SDS_P1;SDS_P2;PMS_P1;PMS_P2;Temp;Humidity;BMP_temperature;BMP_pressure;BME280_temperature;BME280_humidity;BME280_pressure;Samples;Min_cycle;Max_cycle;Signal;HPM_P1;HPM_P2
2023/02/14 00:00:58;;;;;;;29.37;15.20;;;5.90;99.90;;;;;;5100139;28;20317;-48
2023/02/14 00:03:25;;;;;;;28.73;14.50;;;5.90;99.90;;;;;;5087076;28;20664;-50
2023/02/14 00:05:52;;;;;;;28.57;15.33;;;5.90;99.90;;;;;;5074168;28;20190;-53
2023/02/14 00:08:19;;;;;;;29.17;15.97;;;5.90;99.90;;;;;;5086691;28;20230;-52
2023/02/14 00:10:46;;;;;;;29.17;15.33;;;5.90;99.90;;;;;;5083418;27;20202;-48
2023/02/14 00:13:12;;;;;;;29.10;15.97;;;5.80;99.90;;;;;;5096014;28;20206;-56
2023/02/14 00:15:59;;;;;;;29.70;16.20;;;5.80;99.90;;;;;;5083450;27;20278;-59
2023/02/14 00:19:02;;;;;;;29.97;15.03;;;5.80;99.90;;;;;;5088203;27;20959;-52
2023/02/14 00:21:13;;;;;;;25.80;14.63;;;5.90;99.90;;;;;;5082771;28;20266;-48
2023/02/14 00:23:40;;;;;;;28.53;15.20;;;5.80;99.90;;;;;;5086076;28;20199;-49
2023/02/14 00:26:14;;;;;;;26.07;15.30;;;5.80;99.90;;;;;;5087360;28;20212;-56
2023/02/14 00:28:43;;;;;;;26.27;14.90;;;5.80;99.90;;;;;;5104490;28;20327;-51
2023/02/14 00:31:11;;;;;;;29.97;15.03;;;5.80;99.90;;;;;;5100072;28;20200;-55
2023/02/14 00:34:00;;;;;;;27.67;15.33;;;5.80;99.90;;;;;;5084108;28;20213;-56
2023/02/14 00:36:28;;;;;;;24.27;14.50;;;5.70;99.90;;;;;;5074507;28;20513;-48
2023/02/14 00:38:54;;;;;;;27.60;15.57;;;5.70;99.90;;;;;;5088989;28;20217;-57
2023/02/14 00:41:22;;;;;;;28.90;16.87;;;5.70;99.90;;;;;;5084068;28;20194;-51
2023/02/14 00:43:52;;;;;;;29.77;16.80;;;5.70;99.90;;;;;;5083905;28;20206;-57
2023/02/14 00:46:22;;;;;;;26.30;15.53;;;5.70;99.90;;;;;;5088545;28;20877;-48
2023/02/14 00:48:49;;;;;;;26.40;14.93;;;5.70;99.90;;;;;;5086166;28;20226;-51
2023/02/14 00:51:17;;;;;;;30.33;16.17;;;5.80;99.90;;;;;;5070146;28;20204;-53
2023/02/14 00:53:45;;;;;;;28.33;16.30;;;5.80;99.90;;;;;;5086005;28;20607;-49
2023/02/14 00:56:12;;;;;;;28.57;16.00;;;5.80;99.90;;;;;;5081961;28;20216;-53
2023/02/14 00:58:39;;;;;;;27.27;16.27;;;5.80;99.90;;;;;;5084913;28;20228;-49
2023/02/14 01:01:05;;;;;;;26.90;15.63;;;5.80;99.90;;;;;;5083055;28;20221;-57
2023/02/14 01:03:34;;;;;;;27.20;14.70;;;5.80;99.90;;;;;;5084219;28;20206;-47
2023/02/14 01:06:01;;;;;;;28.37;16.80;;;5.80;99.90;;;;;;5082426;28;20194;-58
2023/02/14 01:08:30;;;;;;;28.20;16.20;;;5.70;99.90;;;;;;5071612;28;20308;-48
2023/02/14 01:10:57;;;;;;;27.57;15.30;;;5.80;99.90;;;;;;5090475;28;20205;-57
2023/02/14 01:13:26;;;;;;;26.37;15.00;;;5.80;99.90;;;;;;5082535;28;20298;-50
2023/02/14 01:15:53;;;;;;;27.13;15.23;;;5.80;99.90;;;;;;5093391;28;20216;-59
2023/02/14 01:18:20;;;;;;;27.47;15.50;;;5.80;99.90;;;;;;5082060;28;20232;-55
2023/02/14 01:20:49;;;;;;;29.33;14.97;;;5.70;99.90;;;;;;5084784;28;20555;-53
2023/02/14 01:23:16;;;;;;;27.83;15.37;;;5.80;99.90;;;;;;5069931;28;20213;-56
2023/02/14 01:25:43;;;;;;;24.47;14.33;;;5.80;99.90;;;;;;5075911;28;20715;-48
2023/02/14 01:28:10;;;;;;;27.57;14.93;;;5.80;99.90;;;;;;5081085;28;20241;-57
2023/02/14 01:30:37;;;;;;;29.83;16.50;;;5.70;99.90;;;;;;5084842;28;20205;-50
2023/02/14 01:33:04;;;;;;;26.73;15.27;;;5.70;99.90;;;;;;5082302;28;20190;-57
2023/02/14 01:35:37;;;;;;;24.13;15.03;;;5.60;99.90;;;;;;5084202;28;20256;-47
2023/02/14 01:38:06;;;;;;;26.77;14.57;;;5.60;99.90;;;;;;5071645;28;20225;-58
2023/02/14 01:40:33;;;;;;;29.17;16.27;;;5.60;99.90;;;;;;5090169;28;20202;-47
2023/02/14 01:43:00;;;;;;;24.37;14.30;;;5.60;99.90;;;;;;5081206;28;20284;-55
2023/02/14 01:45:28;;;;;;;30.77;16.10;;;5.60;99.90;;;;;;5087554;28;20206;-49
2023/02/14 01:47:57;;;;;;;25.17;14.60;;;5.60;99.90;;;;;;5085015;28;20591;-58
2023/02/14 01:50:27;;;;;;;26.30;15.17;;;5.60;99.90;;;;;;5091831;28;20877;-52
2023/02/14 01:52:57;;;;;;;27.47;16.20;;;5.70;99.90;;;;;;5083139;28;20198;-56
2023/02/14 01:55:53;;;;;;;25.47;14.83;;;5.70;99.90;;;;;;5072638;28;20266;-55
2023/02/14 01:58:26;;;;;;;28.37;14.93;;;5.70;99.90;;;;;;5083210;28;20217;-53
2023/02/14 02:00:59;;;;;;;29.23;15.93;;;5.70;99.90;;;;;;5084579;28;20228;-56
2023/02/14 02:03:29;;;;;;;27.10;15.03;;;5.70;99.90;;;;;;5088783;28;20247;-48
2023/02/14 02:06:21;;;;;;;28.43;14.90;;;5.70;99.90;;;;;;5082219;28;20209;-52
2023/02/14 02:08:54;;;;;;;26.93;15.13;;;5.70;99.90;;;;;;5086004;28;20240;-60
2023/02/14 02:11:22;;;;;;;30.20;15.37;;;5.70;99.90;;;;;;5086648;28;20238;-48
2023/02/14 02:13:49;;;;;;;27.87;15.97;;;5.60;99.90;;;;;;5083696;28;20202;-56
2023/02/14 02:16:31;;;;;;;29.43;16.50;;;5.60;99.90;;;;;;5088693;28;20222;-49
2023/02/14 02:19:24;;;;;;;27.43;15.77;;;5.60;99.90;;;;;;5080874;28;20217;-57
2023/02/14 02:22:10;;;;;;;30.63;16.53;;;5.60;99.90;;;;;;5080693;28;20289;-56
2023/02/14 02:24:48;;;;;;;27.67;16.20;;;5.50;99.90;;;;;;5099494;28;20217;-49
2023/02/14 02:27:45;;;;;;;25.03;14.50;;;5.50;99.90;;;;;;5080654;28;20849;-54
2023/02/14 02:30:38;;;;;;;26.20;14.67;;;5.50;99.90;;;;;;5083842;28;20215;-54
2023/02/14 02:33:49;;;;;;;30.37;15.90;;;5.50;99.90;;;;;;5080472;28;20320;-51
2023/02/14 02:36:51;;;;;;;28.13;14.57;;;5.50;99.90;;;;;;5025138;28;20313;-49
2023/02/14 02:39:37;;;;;;;28.57;14.97;;;5.50;99.90;;;;;;5035031;28;20203;-50
2023/02/14 02:42:14;;;;;;;25.80;15.13;;;5.50;99.90;;;;;;5056636;28;20292;-56
2023/02/14 02:44:49;;;;;;;26.87;15.27;;;5.50;99.90;;;;;;5084498;28;20671;-50
2023/02/14 02:47:28;;;;;;;27.67;15.43;;;5.50;99.90;;;;;;5075013;28;21022;-54
2023/02/14 02:53:05;;;;;;;29.97;15.73;;;5.40;99.90;;;;;;5083224;28;20201;-57
2023/02/14 02:58:29;;;;;;;27.90;14.63;;;5.40;99.90;;;;;;5078520;28;20354;-52
2023/02/14 03:00:59;;;;;;;27.60;14.17;;;5.40;99.90;;;;;;5063791;28;20247;-58
2023/02/14 03:06:14;;;;;;;28.83;16.00;;;5.40;99.90;;;;;;5094582;28;20288;-49
2023/02/14 03:08:42;;;;;;;29.93;14.90;;;5.30;99.90;;;;;;5103607;28;20229;-55
2023/02/14 03:11:12;;;;;;;26.40;14.90;;;5.40;99.90;;;;;;5098196;28;20945;-51
2023/02/14 03:14:02;;;;;;;26.43;14.17;;;5.40;99.90;;;;;;5083389;28;20209;-48
2023/02/14 03:16:35;;;;;;;26.57;14.67;;;5.40;99.90;;;;;;5096818;28;20222;-52
2023/02/14 03:22:27;;;;;;;29.87;14.80;;;5.40;99.90;;;;;;5081040;28;20185;-49
2023/02/14 03:25:01;;;;;;;31.73;16.47;;;5.30;99.90;;;;;;5080613;28;20202;-56
2023/02/14 03:27:33;;;;;;;26.23;14.97;;;5.20;99.90;;;;;;5081818;28;20394;-51
2023/02/14 03:30:07;;;;;;;30.40;15.03;;;5.20;99.90;;;;;;5066310;28;20656;-56
2023/02/14 03:32:41;;;;;;;28.13;16.00;;;5.20;99.90;;;;;;5081873;28;20230;-48
2023/02/14 03:35:15;;;;;;;30.70;14.60;;;5.20;99.90;;;;;;5079708;28;20194;-48
2023/02/14 03:37:49;;;;;;;30.30;15.70;;;5.20;99.90;;;;;;5086590;28;20229;-50
2023/02/14 03:40:22;;;;;;;27.90;15.27;;;5.20;99.90;;;;;;5085342;28;20839;-50
2023/02/14 03:42:53;;;;;;;32.63;16.47;;;5.30;99.90;;;;;;5084769;28;20209;-55
2023/02/14 03:45:26;;;;;;;32.17;16.77;;;5.20;99.90;;;;;;5073632;28;20358;-47
2023/02/14 03:47:55;;;;;;;31.90;17.87;;;5.20;99.90;;;;;;5097580;28;20274;-58
2023/02/14 03:50:22;;;;;;;27.30;15.07;;;5.20;99.90;;;;;;5087534;28;20194;-47
2023/02/14 03:52:52;;;;;;;34.07;15.90;;;5.10;99.90;;;;;;5086937;28;20206;-57
2023/02/14 03:55:25;;;;;;;31.17;16.67;;;5.10;99.90;;;;;;5085461;28;20190;-50
2023/02/14 03:58:01;;;;;;;31.07;16.37;;;5.10;99.90;;;;;;5086019;28;20374;-57
2023/02/14 04:00:32;;;;;;;33.13;17.30;;;5.10;99.90;;;;;;5069919;28;20205;-51
2023/02/14 04:03:05;;;;;;;32.60;17.03;;;5.10;99.90;;;;;;5091378;28;20193;-56
2023/02/14 04:05:33;;;;;;;35.40;17.57;;;5.10;99.90;;;;;;5083433;28;20198;-52
2023/02/14 04:08:00;;;;;;;33.30;16.20;;;5.10;99.90;;;;;;5084702;28;20226;-48
2023/02/14 04:10:29;;;;;;;34.13;15.27;;;5.10;99.90;;;;;;5083528;28;20822;-51
2023/02/14 04:12:56;;;;;;;33.63;16.67;;;5.20;99.90;;;;;;5099052;28;20212;-47
2023/02/14 04:15:23;;;;;;;31.33;16.17;;;5.20;99.90;;;;;;5103231;28;20204;-57
2023/02/14 04:20:35;;;;;;;36.10;17.40;;;5.10;99.90;;;;;;5083063;28;20186;-49
2023/02/14 04:23:03;;;;;;;32.10;16.83;;;5.10;99.90;;;;;;5088882;28;20198;-48
2023/02/14 04:25:31;;;;;;;33.07;17.93;;;5.10;99.90;;;;;;5083003;28;20194;-49
2023/02/14 04:27:58;;;;;;;33.37;16.43;;;5.10;99.90;;;;;;5086906;28;20214;-48
2023/02/14 04:30:24;;;;;;;32.47;16.53;;;5.10;99.90;;;;;;5082218;28;20656;-58
2023/02/14 04:32:51;;;;;;;30.03;15.20;;;5.10;99.90;;;;;;5074057;28;20312;-49
2023/02/14 04:35:18;;;;;;;35.50;17.80;;;5.10;99.90;;;;;;5087096;28;20208;-57
2023/02/14 04:37:45;;;;;;;34.07;18.13;;;5.10;99.90;;;;;;5083927;28;20891;-52
2023/02/14 04:40:15;;;;;;;30.27;14.90;;;5.10;99.90;;;;;;5085386;28;20205;-55
2023/02/14 04:42:44;;;;;;;30.10;16.17;;;5.10;99.90;;;;;;5084434;28;20278;-49
2023/02/14 04:45:11;;;;;;;33.20;16.87;;;5.10;99.90;;;;;;5085600;28;20209;-56
2023/02/14 04:47:38;;;;;;;36.07;18.47;;;5.10;99.90;;;;;;5077671;28;20217;-52
2023/02/14 04:50:06;;;;;;;33.87;18.23;;;5.10;99.90;;;;;;5088863;28;20263;-50
2023/02/14 04:52:32;;;;;;;38.07;18.73;;;5.10;99.90;;;;;;5082823;28;20194;-50
2023/02/14 04:54:59;;;;;;;32.07;18.00;;;5.00;99.90;;;;;;5087780;28;20702;-49
2023/02/14 04:57:26;;;;;;;35.17;18.67;;;5.00;99.90;;;;;;5082145;28;20218;-54
2023/02/14 04:59:54;;;;;;;31.37;17.23;;;5.00;99.90;;;;;;5086467;28;20198;-48
2023/02/14 05:02:20;;;;;;;38.33;19.80;;;5.00;99.90;;;;;;5082463;28;20311;-57
2023/02/14 05:04:47;;;;;;;36.80;17.97;;;5.10;99.90;;;;;;5070857;28;20213;-55
2023/02/14 05:07:14;;;;;;;34.17;17.50;;;5.00;99.90;;;;;;5081047;28;20214;-54
2023/02/14 05:09:41;;;;;;;34.53;18.53;;;5.10;99.90;;;;;;5087367;28;20220;-56
2023/02/14 05:12:08;;;;;;;34.37;18.07;;;5.00;99.90;;;;;;5082829;28;20202;-54
2023/02/14 05:14:35;;;;;;;35.90;18.33;;;5.00;99.90;;;;;;5085558;28;20221;-51
2023/02/14 05:17:03;;;;;;;34.73;18.33;;;5.00;99.90;;;;;;5088070;28;20229;-50
2023/02/14 05:19:30;;;;;;;36.23;17.60;;;5.10;99.90;;;;;;5074492;28;20202;-51
2023/02/14 05:21:56;;;;;;;36.83;17.80;;;5.10;99.90;;;;;;5089385;28;20246;-56
2023/02/14 05:24:23;;;;;;;36.80;18.20;;;5.10;99.90;;;;;;5098926;28;20198;-51
2023/02/14 05:26:50;;;;;;;34.40;16.87;;;5.10;99.90;;;;;;5083335;28;20190;-56
2023/02/14 05:29:17;;;;;;;36.63;18.57;;;5.10;99.90;;;;;;5084733;28;20558;-48
2023/02/14 05:31:44;;;;;;;33.47;17.53;;;5.10;99.90;;;;;;5084175;28;20194;-55
2023/02/14 05:34:12;;;;;;;33.80;18.17;;;5.10;99.90;;;;;;5070508;28;20205;-50
2023/02/14 05:36:40;;;;;;;32.63;17.10;;;5.10;99.90;;;;;;5084073;28;20209;-59
2023/02/14 05:39:07;;;;;;;32.47;17.20;;;5.10;99.90;;;;;;5076982;28;20686;-52
2023/02/14 05:41:34;;;;;;;33.73;18.33;;;5.10;99.90;;;;;;5080500;28;20285;-57
2023/02/14 05:44:00;;;;;;;39.67;18.67;;;5.10;99.90;;;;;;5083167;28;20236;-48
2023/02/14 05:46:47;;;;;;;37.97;18.90;;;5.10;99.90;;;;;;5087387;28;20205;-49
2023/02/14 05:49:16;;;;;;;35.80;18.77;;;5.10;99.90;;;;;;5089550;28;20236;-59
2023/02/14 05:51:43;;;;;;;33.33;17.70;;;5.10;99.90;;;;;;5081747;28;20205;-52
2023/02/14 05:54:10;;;;;;;37.00;18.13;;;5.10;99.90;;;;;;5091713;28;20217;-50
2023/02/14 05:56:37;;;;;;;37.17;18.43;;;5.10;99.90;;;;;;5072398;28;20198;-49
2023/02/14 05:59:04;;;;;;;35.70;18.33;;;5.10;99.90;;;;;;5100044;28;20200;-48
2023/02/14 06:01:31;;;;;;;34.43;17.60;;;5.10;99.90;;;;;;5085232;28;20194;-57
2023/02/14 06:04:17;;;;;;;38.30;18.67;;;5.10;99.90;;;;;;5091583;28;20760;-58
2023/02/14 06:06:44;;;;;;;35.47;17.77;;;5.10;99.90;;;;;;5083168;28;20209;-48
2023/02/14 06:09:11;;;;;;;35.53;17.20;;;5.10;99.90;;;;;;5094131;28;20205;-47
2023/02/14 06:11:38;;;;;;;39.60;19.60;;;5.10;99.90;;;;;;5074884;28;20200;-52
2023/02/14 06:14:05;;;;;;;36.23;17.80;;;5.10;99.90;;;;;;5089803;28;20551;-49
2023/02/14 06:16:31;;;;;;;35.07;17.50;;;5.10;99.90;;;;;;5086648;28;20193;-57
2023/02/14 06:18:58;;;;;;;38.43;17.93;;;5.10;99.90;;;;;;5096034;28;20233;-52
2023/02/14 06:21:26;;;;;;;34.70;17.00;;;5.10;99.90;;;;;;5071771;28;20201;-57
2023/02/14 06:23:54;;;;;;;31.53;17.23;;;5.10;99.90;;;;;;5087225;28;20232;-49
2023/02/14 06:26:21;;;;;;;36.33;17.93;;;5.10;99.90;;;;;;5093666;28;20285;-58
2023/02/14 06:28:47;;;;;;;33.93;18.80;;;5.10;99.90;;;;;;5094497;28;20225;-48
2023/02/14 06:31:17;;;;;;;35.87;18.67;;;5.10;99.90;;;;;;5086418;28;20577;-53
2023/02/14 06:33:44;;;;;;;33.17;17.07;;;5.10;99.90;;;;;;5092307;28;20198;-52
2023/02/14 06:36:11;;;;;;;34.60;17.33;;;5.10;99.90;;;;;;5081869;28;20209;-53
2023/02/14 06:38:40;;;;;;;31.90;17.30;;;5.10;99.90;;;;;;5094456;28;20221;-48
2023/02/14 06:41:08;;;;;;;33.83;17.53;;;5.10;99.90;;;;;;5096580;28;20228;-50
2023/02/14 06:43:37;;;;;;;35.60;17.50;;;5.10;99.90;;;;;;5090248;28;20184;-48
2023/02/14 06:46:04;;;;;;;35.93;18.40;;;5.10;99.90;;;;;;5090638;28;20224;-48
2023/02/14 06:48:30;;;;;;;39.20;18.27;;;5.00;99.90;;;;;;5092993;28;20224;-48
2023/02/14 06:50:57;;;;;;;35.03;17.20;;;5.10;99.90;;;;;;5081896;28;20193;-58
2023/02/14 06:53:23;;;;;;;33.43;16.87;;;5.10;99.90;;;;;;5086887;28;20206;-49
2023/02/14 06:55:52;;;;;;;39.43;18.53;;;5.10;99.90;;;;;;5094404;28;20803;-56
2023/02/14 06:58:19;;;;;;;36.80;19.43;;;5.10;99.90;;;;;;5084624;28;20232;-48
2023/02/14 07:00:46;;;;;;;38.00;18.80;;;5.10;99.90;;;;;;5083216;28;20201;-47
2023/02/14 07:03:13;;;;;;;34.10;18.73;;;5.20;99.90;;;;;;5093324;28;20251;-48
2023/02/14 07:05:40;;;;;;;41.50;18.17;;;5.20;99.90;;;;;;5092195;28;20262;-56
2023/02/14 07:08:07;;;;;;;40.33;18.50;;;5.20;99.90;;;;;;5080391;28;20241;-49
2023/02/14 07:10:35;;;;;;;37.63;18.37;;;5.20;99.90;;;;;;5082889;28;20200;-53
2023/02/14 07:13:25;;;;;;;36.50;18.73;;;5.20;99.90;;;;;;5092451;28;20278;-51
2023/02/14 07:15:52;;;;;;;33.73;18.33;;;5.20;99.90;;;;;;5087788;28;20282;-52
2023/02/14 07:18:19;;;;;;;34.73;18.57;;;5.20;99.90;;;;;;5088169;28;20261;-51
2023/02/14 07:20:46;;;;;;;32.77;18.43;;;5.20;99.90;;;;;;5079365;28;20201;-51
2023/02/14 07:23:13;;;;;;;39.07;18.83;;;5.20;99.90;;;;;;5070589;28;20568;-50
2023/02/14 07:25:40;;;;;;;37.53;18.90;;;5.30;99.90;;;;;;5079597;28;20227;-53
2023/02/14 07:28:07;;;;;;;33.10;17.70;;;5.30;99.90;;;;;;5076941;28;20210;-55
2023/02/14 07:30:59;;;;;;;35.47;17.37;;;5.30;99.90;;;;;;5080272;28;20217;-54
2023/02/14 07:33:27;;;;;;;35.60;17.73;;;5.30;99.90;;;;;;5095313;28;20243;-51
2023/02/14 07:35:54;;;;;;;34.40;17.93;;;5.30;99.90;;;;;;5081666;28;20660;-54
2023/02/14 07:38:21;;;;;;;35.67;18.00;;;5.30;99.90;;;;;;5076520;28;20271;-53
2023/02/14 07:40:49;;;;;;;38.30;17.83;;;5.40;99.90;;;;;;5090135;28;20201;-53
2023/02/14 07:43:16;;;;;;;36.97;18.23;;;5.40;99.90;;;;;;5079190;28;20205;-54
2023/02/14 07:45:42;;;;;;;34.77;18.33;;;5.40;99.90;;;;;;5090961;28;20224;-53
2023/02/14 07:48:10;;;;;;;36.80;18.80;;;5.40;99.90;;;;;;5084795;28;20225;-55
2023/02/14 07:50:40;;;;;;;38.20;17.73;;;5.40;99.90;;;;;;5086253;28;20205;-52
2023/02/14 07:53:07;;;;;;;34.87;17.27;;;5.40;99.90;;;;;;5092553;28;20200;-54
2023/02/14 07:55:34;;;;;;;35.23;19.10;;;5.50;99.90;;;;;;5066995;28;20221;-52
2023/02/14 07:58:01;;;;;;;36.20;18.43;;;5.50;99.90;;;;;;5091602;28;20222;-53
2023/02/14 08:00:28;;;;;;;33.03;18.77;;;5.60;99.90;;;;;;5084279;28;20194;-53
2023/02/14 08:02:55;;;;;;;39.30;18.47;;;5.50;99.90;;;;;;5082821;28;20637;-54
2023/02/14 08:05:23;;;;;;;34.77;16.93;;;5.50;99.90;;;;;;5085051;28;20194;-55
2023/02/14 08:07:50;;;;;;;36.77;18.00;;;5.60;99.90;;;;;;5100848;28;20645;-51
2023/02/14 08:10:17;;;;;;;35.10;17.53;;;5.60;99.90;;;;;;5079084;28;20224;-54
2023/02/14 08:13:02;;;;;;;38.57;19.27;;;5.60;99.90;;;;;;5091413;28;20204;-55
2023/02/14 08:18:18;;;;;;;37.30;17.17;;;5.70;99.90;;;;;;5077199;28;20334;-55
2023/02/14 08:20:48;;;;;;;37.57;18.10;;;5.70;99.90;;;;;;5085248;28;20202;-54
2023/02/14 08:23:16;;;;;;;35.87;17.73;;;5.80;99.90;;;;;;5085530;28;20293;-53
2023/02/14 08:25:43;;;;;;;36.40;18.53;;;5.80;99.90;;;;;;5073171;28;20206;-55
2023/02/14 08:28:12;;;;;;;37.93;18.27;;;5.90;99.90;;;;;;5084359;28;20740;-53
2023/02/14 08:30:39;;;;;;;35.97;18.27;;;5.90;99.90;;;;;;5086622;28;20285;-53
2023/02/14 08:33:06;;;;;;;32.00;17.13;;;5.90;99.90;;;;;;5083755;28;20198;-54
2023/02/14 08:35:33;;;;;;;41.10;17.83;;;6.00;99.90;;;;;;5092514;28;20209;-53
2023/02/14 08:38:02;;;;;;;35.90;18.13;;;6.00;99.90;;;;;;5092989;28;20218;-54
2023/02/14 08:40:29;;;;;;;32.13;16.80;;;6.00;99.90;;;;;;5091634;28;20194;-54
2023/02/14 08:42:55;;;;;;;34.73;17.30;;;6.10;99.90;;;;;;5070453;28;20208;-52
2023/02/14 08:45:23;;;;;;;30.47;16.30;;;6.10;99.90;;;;;;5084765;28;20190;-54
2023/02/14 08:47:49;;;;;;;28.13;16.07;;;6.20;99.90;;;;;;5095734;28;20711;-52
2023/02/14 08:50:18;;;;;;;28.47;16.37;;;6.30;99.90;;;;;;5084011;28;20897;-54
2023/02/14 08:52:44;;;;;;;32.20;17.60;;;6.40;99.90;;;;;;5085430;28;20198;-53
2023/02/14 08:55:13;;;;;;;30.50;15.93;;;6.50;99.90;;;;;;5091986;28;20217;-53
2023/02/14 08:57:40;;;;;;;31.77;16.57;;;6.60;99.90;;;;;;5077835;28;20236;-55
2023/02/14 09:00:08;;;;;;;28.37;15.00;;;6.70;99.90;;;;;;5085628;28;20710;-53
2023/02/14 09:02:37;;;;;;;30.27;15.93;;;6.70;99.90;;;;;;5088946;28;20190;-53
2023/02/14 09:05:05;;;;;;;30.57;15.23;;;6.80;99.90;;;;;;5079111;28;20403;-53
2023/02/14 09:07:32;;;;;;;28.33;14.40;;;6.80;99.90;;;;;;5090137;28;20252;-53
2023/02/14 09:09:59;;;;;;;25.93;14.33;;;6.80;99.90;;;;;;5089454;28;20202;-55
2023/02/14 09:12:48;;;;;;;23.03;13.57;;;6.90;99.90;;;;;;5076079;28;20304;-53
2023/02/14 09:15:16;;;;;;;31.83;15.47;;;6.90;99.90;;;;;;5083407;28;20238;-51
2023/02/14 09:17:42;;;;;;;25.67;14.43;;;7.00;99.90;;;;;;5095422;28;20594;-53
2023/02/14 09:20:12;;;;;;;23.50;14.53;;;7.00;99.90;;;;;;5088604;28;20254;-53
2023/02/14 09:23:01;;;;;;;23.57;14.47;;;7.00;99.90;;;;;;5085074;28;20213;-55
2023/02/14 09:25:27;;;;;;;25.90;13.90;;;7.10;99.90;;;;;;5096510;28;20291;-56
2023/02/14 09:27:56;;;;;;;23.93;14.33;;;7.20;99.90;;;;;;5098175;28;20723;-51
2023/02/14 09:30:23;;;;;;;23.23;13.57;;;7.40;99.90;;;;;;5073300;28;20204;-54
2023/02/14 09:32:51;;;;;;;22.97;14.00;;;7.50;99.90;;;;;;5086118;28;20198;-53
2023/02/14 09:35:18;;;;;;;25.73;14.80;;;7.50;99.90;;;;;;5081269;28;20220;-53
2023/02/14 09:40:32;;;;;;;25.27;14.57;;;7.40;99.90;;;;;;5091561;28;20197;-53
2023/02/14 09:43:08;;;;;;;20.90;13.60;;;7.40;99.90;;;;;;5092431;28;20189;-54
2023/02/14 09:45:35;;;;;;;23.50;13.87;;;7.50;99.90;;;;;;5069618;28;20213;-54
2023/02/14 09:48:06;;;;;;;22.17;12.97;;;7.60;99.90;;;;;;5082270;28;20963;-54
2023/02/14 09:50:39;;;;;;;19.50;13.43;;;7.60;99.90;;;;;;5085761;28;20194;-53
2023/02/14 09:53:15;;;;;;;24.70;14.03;;;7.70;99.90;;;;;;5082942;28;20216;-51
2023/02/14 09:55:50;;;;;;;23.63;13.57;;;7.80;99.90;;;;;;5091068;28;20197;-54
2023/02/14 09:58:24;;;;;;;22.83;13.83;;;7.80;99.90;;;;;;5090933;28;20220;-52
2023/02/14 10:00:57;;;;;;;23.67;13.73;;;7.90;99.90;;;;;;5079415;28;20185;-54
2023/02/14 10:03:51;;;;;;;20.40;12.20;;;7.90;99.90;;;;;;5086231;28;20251;-55
2023/02/14 10:06:47;;;;;;;21.60;13.20;;;8.00;99.90;;;;;;5091234;28;20213;-54
2023/02/14 10:09:57;;;;;;;21.03;13.20;;;8.00;99.90;;;;;;5093453;28;20201;-52
2023/02/14 10:12:30;;;;;;;23.73;13.40;;;8.00;99.90;;;;;;5068799;28;20285;-54
2023/02/14 10:15:04;;;;;;;24.40;14.43;;;8.00;99.90;;;;;;5090570;28;20285;-50
2023/02/14 10:17:40;;;;;;;23.53;14.53;;;8.10;99.90;;;;;;5077478;28;20225;-54
2023/02/14 10:20:29;;;;;;;19.13;13.03;;;8.20;99.90;;;;;;5096955;28;20211;-50
2023/02/14 10:23:03;;;;;;;23.63;14.17;;;8.30;99.90;;;;;;5095454;28;20941;-55
2023/02/14 10:25:39;;;;;;;19.93;13.17;;;8.40;99.90;;;;;;5080294;28;20274;-52
2023/02/14 10:28:12;;;;;;;21.23;13.67;;;8.50;99.90;;;;;;5089749;28;20208;-55
2023/02/14 10:30:45;;;;;;;20.13;13.03;;;8.60;99.90;;;;;;5095966;28;20655;-54
2023/02/14 10:33:16;;;;;;;21.03;12.83;;;8.70;99.90;;;;;;5075339;28;20336;-52
2023/02/14 10:35:48;;;;;;;23.17;13.83;;;8.70;99.90;;;;;;5087220;28;20209;-53
2023/02/14 10:38:44;;;;;;;18.70;12.63;;;8.60;99.90;;;;;;5096113;28;20273;-54
2023/02/14 10:41:22;;;;;;;20.93;13.53;;;8.60;99.90;;;;;;5079754;28;20572;-52
2023/02/14 10:44:01;;;;;;;21.20;13.80;;;8.70;99.90;;;;;;5087389;28;20200;-53
2023/02/14 10:46:39;;;;;;;21.70;13.57;;;8.70;99.90;;;;;;5098955;28;20271;-54
2023/02/14 10:49:21;;;;;;;22.33;14.00;;;8.70;99.90;;;;;;5082402;28;20248;-52
2023/02/14 10:51:54;;;;;;;23.07;13.63;;;8.70;99.90;;;;;;5089929;28;20794;-53
2023/02/14 10:54:25;;;;;;;22.07;13.53;;;8.70;99.90;;;;;;5083711;28;20251;-54
2023/02/14 10:57:15;;;;;;;21.17;13.40;;;8.70;99.90;;;;;;5085037;28;20581;-54
2023/02/14 10:59:49;;;;;;;20.13;12.67;;;8.70;99.90;;;;;;5084860;28;20218;-54
2023/02/14 11:02:22;;;;;;;23.43;13.63;;;8.70;99.90;;;;;;5094946;28;20232;-51
2023/02/14 11:04:50;;;;;;;18.20;12.57;;;8.80;99.90;;;;;;5069513;28;20197;-54
2023/02/14 11:07:21;;;;;;;22.50;13.73;;;8.90;99.90;;;;;;5090051;28;20307;-51
2023/02/14 11:10:13;;;;;;;24.23;13.70;;;8.90;99.90;;;;;;5091610;28;20274;-53
2023/02/14 11:12:41;;;;;;;23.73;13.07;;;9.00;99.90;;;;;;5091632;28;20856;-52
2023/02/14 11:15:24;;;;;;;19.23;12.10;;;9.00;99.90;;;;;;5083397;28;20676;-54
2023/02/14 11:18:09;;;;;;;22.20;13.70;;;9.00;99.90;;;;;;5097346;28;20304;-50
2023/02/14 11:20:38;;;;;;;21.57;12.73;;;9.10;99.90;;;;;;5066243;28;20209;-50
2023/02/14 11:23:20;;;;;;;19.40;12.90;;;9.10;99.90;;;;;;5091035;28;20272;-51
2023/02/14 11:25:54;;;;;;;16.87;12.20;;;9.20;99.90;;;;;;5091242;28;20215;-51
2023/02/14 11:28:21;;;;;;;20.90;12.07;;;9.20;99.90;;;;;;5088540;28;20267;-53
2023/02/14 11:30:50;;;;;;;20.10;11.73;;;9.20;99.90;;;;;;5087879;28;20563;-55
2023/02/14 11:33:35;;;;;;;19.07;12.20;;;9.30;99.90;;;;;;5083246;28;20217;-52
2023/02/14 11:36:04;;;;;;;21.20;12.70;;;9.30;99.90;;;;;;5072334;28;20214;-53
2023/02/14 11:38:37;;;;;;;19.90;13.33;;;9.40;99.90;;;;;;5090358;28;20965;-52
2023/02/14 11:41:06;;;;;;;20.87;12.97;;;9.40;99.90;;;;;;5087763;28;20569;-54
2023/02/14 11:43:35;;;;;;;18.20;12.60;;;9.40;99.90;;;;;;5083450;28;20228;-54
2023/02/14 11:46:12;;;;;;;20.37;12.40;;;9.40;99.90;;;;;;5086919;28;20218;-52
2023/02/14 11:48:55;;;;;;;20.03;12.33;;;9.50;99.90;;;;;;5084935;28;20271;-59
2023/02/14 11:51:28;;;;;;;24.27;12.77;;;9.60;99.90;;;;;;5069879;28;20198;-54
2023/02/14 11:54:31;;;;;;;18.90;13.10;;;9.70;99.90;;;;;;5090729;28;20200;-53
2023/02/14 11:57:05;;;;;;;20.17;13.07;;;9.70;99.90;;;;;;5087405;28;20194;-54
2023/02/14 11:59:35;;;;;;;19.73;12.40;;;9.70;99.90;;;;;;5097267;28;20219;-51
2023/02/14 12:02:12;;;;;;;19.27;12.87;;;9.80;99.90;;;;;;5094923;28;20200;-53
2023/02/14 12:04:44;;;;;;;21.17;12.77;;;9.80;99.90;;;;;;5097378;28;20376;-50
2023/02/14 12:07:16;;;;;;;20.10;11.77;;;9.90;99.90;;;;;;5077792;28;20314;-54
2023/02/14 12:09:43;;;;;;;20.77;13.07;;;10.00;99.90;;;;;;5095643;28;20201;-51
2023/02/14 12:12:17;;;;;;;20.63;13.20;;;10.00;99.90;;;;;;5089797;28;20201;-52
2023/02/14 12:14:45;;;;;;;19.87;11.87;;;10.00;99.90;;;;;;5086915;28;20185;-50
2023/02/14 12:17:29;;;;;;;25.43;13.40;;;10.00;99.90;;;;;;5097046;28;20259;-51
2023/02/14 12:20:19;;;;;;;18.43;12.30;;;10.00;99.90;;;;;;5092651;28;20247;-54
2023/02/14 12:22:51;;;;;;;18.53;13.27;;;10.10;99.90;;;;;;5079172;28;20979;-55
2023/02/14 12:25:23;;;;;;;18.97;11.97;;;10.20;99.90;;;;;;5089277;28;20198;-54
2023/02/14 12:27:56;;;;;;;18.67;12.33;;;10.20;99.90;;;;;;5088423;28;20236;-52
2023/02/14 12:30:27;;;;;;;15.97;12.00;;;10.30;99.90;;;;;;5090755;28;20195;-54
2023/02/14 12:32:56;;;;;;;17.90;11.53;;;10.30;99.90;;;;;;5096092;28;20189;-52
2023/02/14 12:35:39;;;;;;;22.20;12.80;;;10.30;99.90;;;;;;5099619;28;20189;-52
2023/02/14 12:38:11;;;;;;;19.83;13.23;;;10.50;99.90;;;;;;5072819;28;20228;-51
2023/02/14 12:40:47;;;;;;;18.50;12.07;;;10.50;99.90;;;;;;5092186;28;20300;-52
2023/02/14 12:43:42;;;;;;;22.90;13.13;;;10.40;99.90;;;;;;5094833;28;20205;-54
2023/02/14 12:46:31;;;;;;;18.43;12.37;;;10.50;99.90;;;;;;5089844;28;20194;-51
2023/02/14 12:49:18;;;;;;;19.03;13.43;;;10.50;99.90;;;;;;5086841;28;20218;-51
2023/02/14 12:51:53;;;;;;;20.17;12.20;;;10.50;99.90;;;;;;5087488;28;20272;-51
2023/02/14 12:54:35;;;;;;;18.53;13.27;;;10.60;99.90;;;;;;5071142;28;20205;-54
2023/02/14 12:57:13;;;;;;;22.63;13.33;;;10.60;99.90;;;;;;5090280;28;20695;-52
2023/02/14 12:59:55;;;;;;;20.07;12.40;;;10.60;99.90;;;;;;5081941;28;20220;-53
2023/02/14 13:02:54;;;;;;;17.83;12.13;;;10.70;99.90;;;;;;5087099;28;20263;-53
2023/02/14 13:05:25;;;;;;;19.10;12.17;;;10.70;99.90;;;;;;5091256;28;20202;-55
2023/02/14 13:08:17;;;;;;;18.17;11.80;;;10.80;99.90;;;;;;5095194;28;20229;-52
2023/02/14 13:10:55;;;;;;;16.07;11.53;;;10.90;99.90;;;;;;5077989;28;20694;-55
2023/02/14 13:13:33;;;;;;;17.33;11.80;;;10.80;99.90;;;;;;5090857;28;20189;-51
2023/02/14 13:16:12;;;;;;;17.70;11.87;;;10.80;99.90;;;;;;5087625;28;20220;-52
2023/02/14 13:18:47;;;;;;;19.43;12.13;;;10.80;99.90;;;;;;5093016;28;20232;-52
2023/02/14 13:21:17;;;;;;;19.40;12.07;;;10.80;99.90;;;;;;5095740;28;20213;-52